sensor_id;sensor_type;location;lat;lon;timestamp;pressure;altitude;pressure_sealevel;temperature;humidity
61128;BME280;47013;42.664;23.242;2023-06-19T00:02:10;94126.34;;;17.84;85.84
61128;BME280;47013;42.664;23.242;2023-06-19T00:04:35;94120.31;;;17.77;84.46
61128;BME280;47013;42.664;23.242;2023-06-19T00:07:00;94116.81;;;17.76;85.24
61128;BME280;47013;42.664;23.242;2023-06-19T00:09:26;94120.94;;;17.59;82.79
61128;BME280;47013;42.664;23.242;2023-06-19T00:11:51;94119.28;;;17.61;83.07
61128;BME280;47013;42.664;23.242;2023-06-19T00:14:16;94117.16;;;17.65;83.23
61128;BME280;47013;42.664;23.242;2023-06-19T00:16:42;94115.50;;;17.68;85.02
61128;BME280;47013;42.664;23.242;2023-06-19T00:19:08;94119.16;;;17.65;83.51
61128;BME280;47013;42.664;23.242;2023-06-19T00:21:33;94117.16;;;17.44;82.61
61128;BME280;47013;42.664;23.242;2023-06-19T00:23:59;94117.66;;;17.51;85.51
61128;BME280;47013;42.664;23.242;2023-06-19T00:26:24;94109.91;;;17.50;83.68
61128;BME280;47013;42.664;23.242;2023-06-19T00:28:50;94107.78;;;17.54;85.35
61128;BME280;47013;42.664;23.242;2023-06-19T00:31:15;94110.41;;;17.57;85.49
61128;BME280;47013;42.664;23.242;2023-06-19T00:33:41;94108.00;;;17.59;86.77
61128;BME280;47013;42.664;23.242;2023-06-19T00:36:10;94108.31;;;17.61;86.29
61128;BME280;47013;42.664;23.242;2023-06-19T00:38:36;94106.19;;;17.65;88.69
61128;BME280;47013;42.664;23.242;2023-06-19T00:41:01;94105.44;;;17.65;88.26
61128;BME280;47013;42.664;23.242;2023-06-19T00:43:26;94106.19;;;17.65;87.92
61128;BME280;47013;42.664;23.242;2023-06-19T00:45:51;94105.88;;;17.63;86.58
61128;BME280;47013;42.664;23.242;2023-06-19T00:48:17;94100.97;;;17.58;84.90
61128;BME280;47013;42.664;23.242;2023-06-19T00:50:42;94098.47;;;17.51;83.87
61128;BME280;47013;42.664;23.242;2023-06-19T00:53:08;94086.50;;;17.36;84.74
61128;BME280;47013;42.664;23.242;2023-06-19T00:55:33;94087.19;;;17.27;84.28
61128;BME280;47013;42.664;23.242;2023-06-19T00:58:01;94081.69;;;17.27;83.48
61128;BME280;47013;42.664;23.242;2023-06-19T01:00:27;94075.97;;;17.34;84.61
61128;BME280;47013;42.664;23.242;2023-06-19T01:02:53;94069.59;;;17.37;85.60
61128;BME280;47013;42.664;23.242;2023-06-19T01:05:18;94067.19;;;17.39;84.85
61128;BME280;47013;42.664;23.242;2023-06-19T01:08:01;94073.41;;;17.40;84.49
61128;BME280;47013;42.664;23.242;2023-06-19T01:10:30;94074.06;;;17.44;84.84
61128;BME280;47013;42.664;23.242;2023-06-19T01:13:01;94064.66;;;17.45;85.44
61128;BME280;47013;42.664;23.242;2023-06-19T01:15:27;94069.69;;;17.47;85.45
61128;BME280;47013;42.664;23.242;2023-06-19T01:17:54;94061.91;;;17.45;84.42
61128;BME280;47013;42.664;23.242;2023-06-19T01:20:19;94060.34;;;17.44;84.94
61128;BME280;47013;42.664;23.242;2023-06-19T01:22:45;94062.78;;;17.42;85.26
61128;BME280;47013;42.664;23.242;2023-06-19T01:25:10;94066.72;;;17.41;85.64
61128;BME280;47013;42.664;23.242;2023-06-19T01:27:39;94072.78;;;17.36;84.67
61128;BME280;47013;42.664;23.242;2023-06-19T01:30:05;94069.84;;;17.30;84.32
61128;BME280;47013;42.664;23.242;2023-06-19T01:32:37;94064.19;;;17.25;84.72
61128;BME280;47013;42.664;23.242;2023-06-19T01:35:05;94068.03;;;17.15;85.04
61128;BME280;47013;42.664;23.242;2023-06-19T01:37:33;94064.03;;;17.06;85.20
61128;BME280;47013;42.664;23.242;2023-06-19T01:39:58;94071.41;;;16.97;85.30
61128;BME280;47013;42.664;23.242;2023-06-19T01:42:25;94074.38;;;16.90;86.02
61128;BME280;47013;42.664;23.242;2023-06-19T01:44:50;94071.00;;;16.86;86.55
61128;BME280;47013;42.664;23.242;2023-06-19T01:47:16;94075.38;;;16.83;87.43
61128;BME280;47013;42.664;23.242;2023-06-19T01:49:45;94080.19;;;16.79;87.88
61128;BME280;47013;42.664;23.242;2023-06-19T01:52:10;94079.22;;;16.73;88.35
61128;BME280;47013;42.664;23.242;2023-06-19T01:54:35;94080.44;;;16.72;88.51
61128;BME280;47013;42.664;23.242;2023-06-19T01:57:01;94075.91;;;16.65;88.86
61128;BME280;47013;42.664;23.242;2023-06-19T01:59:26;94078.00;;;16.61;90.02
61128;BME280;47013;42.664;23.242;2023-06-19T02:01:51;94078.91;;;16.58;90.01
61128;BME280;47013;42.664;23.242;2023-06-19T02:04:16;94080.09;;;16.57;90.87
61128;BME280;47013;42.664;23.242;2023-06-19T02:06:42;94082.09;;;16.57;89.95
61128;BME280;47013;42.664;23.242;2023-06-19T02:09:07;94087.13;;;16.58;90.76
61128;BME280;47013;42.664;23.242;2023-06-19T02:11:33;94084.38;;;16.58;90.78
61128;BME280;47013;42.664;23.242;2023-06-19T02:13:58;94089.41;;;16.60;91.58
61128;BME280;47013;42.664;23.242;2023-06-19T02:16:23;94094.00;;;16.63;92.08
61128;BME280;47013;42.664;23.242;2023-06-19T02:18:48;94097.19;;;16.61;92.54
61128;BME280;47013;42.664;23.242;2023-06-19T02:21:14;94096.72;;;16.63;92.43
61128;BME280;47013;42.664;23.242;2023-06-19T02:23:39;94101.13;;;16.60;92.80
61128;BME280;47013;42.664;23.242;2023-06-19T02:26:04;94093.22;;;16.62;93.13
61128;BME280;47013;42.664;23.242;2023-06-19T02:28:29;94100.69;;;16.62;93.01
61128;BME280;47013;42.664;23.242;2023-06-19T02:30:55;94102.53;;;16.65;92.90
61128;BME280;47013;42.664;23.242;2023-06-19T02:33:20;94105.72;;;16.63;93.15
61128;BME280;47013;42.664;23.242;2023-06-19T02:35:45;94103.75;;;16.64;92.78
61128;BME280;47013;42.664;23.242;2023-06-19T02:38:11;94104.06;;;16.66;93.23
61128;BME280;47013;42.664;23.242;2023-06-19T02:40:37;94108.78;;;16.65;93.02
61128;BME280;47013;42.664;23.242;2023-06-19T02:43:03;94101.44;;;16.62;92.03
61128;BME280;47013;42.664;23.242;2023-06-19T02:45:28;94108.47;;;16.50;91.72
61128;BME280;47013;42.664;23.242;2023-06-19T02:47:53;94107.25;;;16.51;92.10
61128;BME280;47013;42.664;23.242;2023-06-19T02:50:18;94106.81;;;16.53;93.28
61128;BME280;47013;42.664;23.242;2023-06-19T02:52:44;94122.06;;;16.54;93.32
61128;BME280;47013;42.664;23.242;2023-06-19T02:55:09;94104.84;;;16.53;92.42
61128;BME280;47013;42.664;23.242;2023-06-19T02:57:34;94128.38;;;16.51;92.62
61128;BME280;47013;42.664;23.242;2023-06-19T02:59:59;94120.28;;;16.47;93.21
61128;BME280;47013;42.664;23.242;2023-06-19T03:02:24;94122.38;;;16.43;94.42
61128;BME280;47013;42.664;23.242;2023-06-19T03:04:50;94120.50;;;16.40;94.85
61128;BME280;47013;42.664;23.242;2023-06-19T03:07:15;94120.63;;;16.37;95.11
61128;BME280;47013;42.664;23.242;2023-06-19T03:09:41;94119.19;;;16.32;95.06
61128;BME280;47013;42.664;23.242;2023-06-19T03:12:07;94115.38;;;16.30;94.92
61128;BME280;47013;42.664;23.242;2023-06-19T03:14:32;94118.44;;;16.19;95.90
61128;BME280;47013;42.664;23.242;2023-06-19T03:16:57;94116.47;;;16.19;97.41
61128;BME280;47013;42.664;23.242;2023-06-19T03:19:23;94115.69;;;16.19;97.21
61128;BME280;47013;42.664;23.242;2023-06-19T03:21:48;94109.34;;;16.09;96.39
61128;BME280;47013;42.664;23.242;2023-06-19T03:24:13;94120.25;;;15.97;96.89
61128;BME280;47013;42.664;23.242;2023-06-19T03:26:39;94117.75;;;16.02;97.40
61128;BME280;47013;42.664;23.242;2023-06-19T03:29:04;94113.81;;;16.03;97.05
61128;BME280;47013;42.664;23.242;2023-06-19T03:31:29;94118.41;;;16.06;96.90
61128;BME280;47013;42.664;23.242;2023-06-19T03:33:54;94114.81;;;16.09;96.17
61128;BME280;47013;42.664;23.242;2023-06-19T03:36:20;94119.50;;;16.09;95.77
61128;BME280;47013;42.664;23.242;2023-06-19T03:38:46;94118.63;;;16.12;95.79
61128;BME280;47013;42.664;23.242;2023-06-19T03:41:11;94108.00;;;16.14;95.95
61128;BME280;47013;42.664;23.242;2023-06-19T03:43:37;94116.88;;;16.05;94.46
61128;BME280;47013;42.664;23.242;2023-06-19T03:46:02;94113.81;;;16.03;94.55
61128;BME280;47013;42.664;23.242;2023-06-19T03:48:27;94115.13;;;16.11;95.67
61128;BME280;47013;42.664;23.242;2023-06-19T03:50:53;94110.34;;;16.15;94.78
61128;BME280;47013;42.664;23.242;2023-06-19T03:53:18;94112.84;;;16.22;94.56
61128;BME280;47013;42.664;23.242;2023-06-19T03:55:43;94112.72;;;16.26;93.24
61128;BME280;47013;42.664;23.242;2023-06-19T03:58:09;94110.22;;;16.19;91.47
61128;BME280;47013;42.664;23.242;2023-06-19T04:00:34;94112.19;;;16.18;92.60
61128;BME280;47013;42.664;23.242;2023-06-19T04:03:00;94115.13;;;16.11;92.77
61128;BME280;47013;42.664;23.242;2023-06-19T04:05:25;94111.94;;;16.13;92.85
61128;BME280;47013;42.664;23.242;2023-06-19T04:07:51;94108.69;;;16.18;93.61
61128;BME280;47013;42.664;23.242;2023-06-19T04:10:16;94109.47;;;16.18;92.45
61128;BME280;47013;42.664;23.242;2023-06-19T04:12:41;94111.75;;;16.20;92.83
61128;BME280;47013;42.664;23.242;2023-06-19T04:15:07;94110.75;;;16.27;92.95
61128;BME280;47013;42.664;23.242;2023-06-19T04:17:32;94111.19;;;16.38;92.72
61128;BME280;47013;42.664;23.242;2023-06-19T04:19:58;94112.63;;;16.42;93.42
61128;BME280;47013;42.664;23.242;2023-06-19T04:22:23;94109.03;;;16.33;94.13
61128;BME280;47013;42.664;23.242;2023-06-19T04:24:48;94108.03;;;16.39;94.16
61128;BME280;47013;42.664;23.242;2023-06-19T04:27:13;94111.00;;;16.45;94.96
61128;BME280;47013;42.664;23.242;2023-06-19T04:29:39;94100.03;;;16.45;94.56
61128;BME280;47013;42.664;23.242;2023-06-19T04:32:04;94105.63;;;16.54;93.17
61128;BME280;47013;42.664;23.242;2023-06-19T04:34:36;94104.06;;;16.53;92.22
61128;BME280;47013;42.664;23.242;2023-06-19T04:37:02;94098.28;;;16.51;93.16
61128;BME280;47013;42.664;23.242;2023-06-19T04:39:27;94102.44;;;16.56;93.67
61128;BME280;47013;42.664;23.242;2023-06-19T04:41:52;94099.16;;;16.61;93.42
61128;BME280;47013;42.664;23.242;2023-06-19T04:44:17;94098.97;;;16.68;92.80
61128;BME280;47013;42.664;23.242;2023-06-19T04:46:43;94105.81;;;16.85;92.44
61128;BME280;47013;42.664;23.242;2023-06-19T04:49:11;94102.75;;;16.96;90.44
61128;BME280;47013;42.664;23.242;2023-06-19T04:51:37;94106.75;;;17.04;90.19
61128;BME280;47013;42.664;23.242;2023-06-19T04:54:04;94104.44;;;17.15;89.61
61128;BME280;47013;42.664;23.242;2023-06-19T04:56:29;94094.19;;;17.28;84.46
61128;BME280;47013;42.664;23.242;2023-06-19T04:58:57;94105.09;;;17.41;83.65
61128;BME280;47013;42.664;23.242;2023-06-19T05:01:25;94098.16;;;17.49;79.74
61128;BME280;47013;42.664;23.242;2023-06-19T05:03:54;94098.09;;;17.62;79.13
61128;BME280;47013;42.664;23.242;2023-06-19T05:06:20;94104.00;;;17.73;78.89
61128;BME280;47013;42.664;23.242;2023-06-19T05:08:45;94098.91;;;17.84;79.82
61128;BME280;47013;42.664;23.242;2023-06-19T05:11:10;94099.53;;;17.88;77.45
61128;BME280;47013;42.664;23.242;2023-06-19T05:13:36;94099.25;;;17.95;75.46
61128;BME280;47013;42.664;23.242;2023-06-19T05:16:01;94097.78;;;18.04;77.30
61128;BME280;47013;42.664;23.242;2023-06-19T05:18:26;94104.34;;;18.06;74.11
61128;BME280;47013;42.664;23.242;2023-06-19T05:20:51;94105.63;;;18.14;75.48
61128;BME280;47013;42.664;23.242;2023-06-19T05:23:17;94107.44;;;18.17;74.77
61128;BME280;47013;42.664;23.242;2023-06-19T05:25:42;94111.78;;;18.27;75.62
61128;BME280;47013;42.664;23.242;2023-06-19T05:28:08;94110.16;;;18.39;75.74
61128;BME280;47013;42.664;23.242;2023-06-19T05:30:33;94119.31;;;18.45;74.70
61128;BME280;47013;42.664;23.242;2023-06-19T05:33:00;94121.50;;;18.50;74.41
61128;BME280;47013;42.664;23.242;2023-06-19T05:35:25;94136.44;;;18.49;73.40
61128;BME280;47013;42.664;23.242;2023-06-19T05:37:50;94133.84;;;18.55;73.29
61128;BME280;47013;42.664;23.242;2023-06-19T05:40:16;94133.47;;;18.66;73.49
61128;BME280;47013;42.664;23.242;2023-06-19T05:42:41;94134.72;;;18.74;73.71
61128;BME280;47013;42.664;23.242;2023-06-19T05:45:06;94133.47;;;18.75;71.72
61128;BME280;47013;42.664;23.242;2023-06-19T05:47:32;94138.72;;;18.82;71.50
61128;BME280;47013;42.664;23.242;2023-06-19T05:49:57;94141.31;;;18.85;72.77
61128;BME280;47013;42.664;23.242;2023-06-19T05:52:23;94137.53;;;18.92;72.32
61128;BME280;47013;42.664;23.242;2023-06-19T05:54:48;94132.06;;;19.01;71.79
61128;BME280;47013;42.664;23.242;2023-06-19T05:57:14;94132.81;;;19.11;71.71
61128;BME280;47013;42.664;23.242;2023-06-19T05:59:41;94139.09;;;19.21;72.31
61128;BME280;47013;42.664;23.242;2023-06-19T06:02:06;94137.59;;;19.29;72.13
61128;BME280;47013;42.664;23.242;2023-06-19T06:04:32;94147.81;;;19.37;71.86
61128;BME280;47013;42.664;23.242;2023-06-19T06:06:58;94144.94;;;19.41;71.18
61128;BME280;47013;42.664;23.242;2023-06-19T06:09:23;94147.06;;;19.46;70.53
61128;BME280;47013;42.664;23.242;2023-06-19T06:11:48;94150.94;;;19.58;70.78
61128;BME280;47013;42.664;23.242;2023-06-19T06:14:13;94148.03;;;19.61;69.37
61128;BME280;47013;42.664;23.242;2023-06-19T06:16:39;94151.84;;;19.64;69.84
61128;BME280;47013;42.664;23.242;2023-06-19T06:19:04;94149.72;;;19.68;70.84
61128;BME280;47013;42.664;23.242;2023-06-19T06:21:29;94151.38;;;19.74;69.41
61128;BME280;47013;42.664;23.242;2023-06-19T06:23:54;94150.91;;;19.76;68.52
61128;BME280;47013;42.664;23.242;2023-06-19T06:26:20;94158.25;;;19.79;68.62
61128;BME280;47013;42.664;23.242;2023-06-19T06:28:45;94159.94;;;19.86;69.54
61128;BME280;47013;42.664;23.242;2023-06-19T06:31:10;94152.91;;;19.94;70.45
61128;BME280;47013;42.664;23.242;2023-06-19T06:33:35;94152.75;;;20.07;68.59
61128;BME280;47013;42.664;23.242;2023-06-19T06:36:01;94162.97;;;20.15;68.14
61128;BME280;47013;42.664;23.242;2023-06-19T06:38:26;94161.44;;;20.23;68.33
61128;BME280;47013;42.664;23.242;2023-06-19T06:40:51;94157.13;;;20.31;67.02
61128;BME280;47013;42.664;23.242;2023-06-19T06:43:17;94165.81;;;20.39;66.19
61128;BME280;47013;42.664;23.242;2023-06-19T06:45:42;94167.06;;;20.47;65.37
61128;BME280;47013;42.664;23.242;2023-06-19T06:48:07;94167.78;;;20.57;65.93
61128;BME280;47013;42.664;23.242;2023-06-19T06:50:33;94163.78;;;20.67;63.88
61128;BME280;47013;42.664;23.242;2023-06-19T06:52:59;94163.75;;;20.76;64.31
61128;BME280;47013;42.664;23.242;2023-06-19T06:55:24;94155.78;;;20.78;63.50
61128;BME280;47013;42.664;23.242;2023-06-19T06:57:49;94154.69;;;20.85;63.26
61128;BME280;47013;42.664;23.242;2023-06-19T07:00:15;94160.28;;;21.00;63.00
61128;BME280;47013;42.664;23.242;2023-06-19T07:02:40;94160.09;;;21.03;63.78
61128;BME280;47013;42.664;23.242;2023-06-19T07:05:09;94167.31;;;21.01;64.46
61128;BME280;47013;42.664;23.242;2023-06-19T07:07:34;94161.75;;;21.10;61.48
61128;BME280;47013;42.664;23.242;2023-06-19T07:10:00;94156.47;;;21.21;62.41
61128;BME280;47013;42.664;23.242;2023-06-19T07:12:25;94153.41;;;21.28;59.12
61128;BME280;47013;42.664;23.242;2023-06-19T07:14:54;94151.50;;;21.34;60.95
61128;BME280;47013;42.664;23.242;2023-06-19T07:17:19;94158.97;;;21.43;60.96
61128;BME280;47013;42.664;23.242;2023-06-19T07:19:45;94153.16;;;21.41;63.45
61128;BME280;47013;42.664;23.242;2023-06-19T07:22:10;94151.28;;;21.47;59.32
61128;BME280;47013;42.664;23.242;2023-06-19T07:24:35;94155.97;;;21.56;60.16
61128;BME280;47013;42.664;23.242;2023-06-19T07:27:01;94153.44;;;21.67;58.15
61128;BME280;47013;42.664;23.242;2023-06-19T07:29:26;94165.72;;;21.66;58.91
61128;BME280;47013;42.664;23.242;2023-06-19T07:31:52;94169.75;;;21.79;57.39
61128;BME280;47013;42.664;23.242;2023-06-19T07:34:17;94165.09;;;21.86;57.44
61128;BME280;47013;42.664;23.242;2023-06-19T07:36:42;94168.72;;;21.92;56.30
61128;BME280;47013;42.664;23.242;2023-06-19T07:39:07;94163.00;;;21.95;54.70
61128;BME280;47013;42.664;23.242;2023-06-19T07:41:33;94166.66;;;22.01;56.72
61128;BME280;47013;42.664;23.242;2023-06-19T07:43:58;94171.81;;;22.08;56.37
61128;BME280;47013;42.664;23.242;2023-06-19T07:46:23;94165.53;;;22.08;56.69
61128;BME280;47013;42.664;23.242;2023-06-19T07:48:49;94166.72;;;21.92;56.23
61128;BME280;47013;42.664;23.242;2023-06-19T07:51:16;94175.81;;;22.07;56.47
61128;BME280;47013;42.664;23.242;2023-06-19T07:53:41;94173.34;;;22.24;56.84
61128;BME280;47013;42.664;23.242;2023-06-19T07:56:08;94170.50;;;22.33;55.76
61128;BME280;47013;42.664;23.242;2023-06-19T07:58:34;94173.97;;;22.43;54.51
61128;BME280;47013;42.664;23.242;2023-06-19T08:00:59;94163.75;;;22.34;58.34
61128;BME280;47013;42.664;23.242;2023-06-19T08:03:25;94168.44;;;22.43;55.02
61128;BME280;47013;42.664;23.242;2023-06-19T08:05:50;94171.28;;;22.49;53.13
61128;BME280;47013;42.664;23.242;2023-06-19T08:08:15;94164.50;;;22.50;52.32
61128;BME280;47013;42.664;23.242;2023-06-19T08:10:40;94168.91;;;22.56;49.78
61128;BME280;47013;42.664;23.242;2023-06-19T08:13:06;94160.22;;;22.63;46.25
61128;BME280;47013;42.664;23.242;2023-06-19T08:15:32;94169.38;;;22.55;47.15
61128;BME280;47013;42.664;23.242;2023-06-19T08:17:57;94170.88;;;22.71;46.17
61128;BME280;47013;42.664;23.242;2023-06-19T08:20:22;94166.78;;;22.81;45.77
61128;BME280;47013;42.664;23.242;2023-06-19T08:22:48;94166.31;;;22.97;45.58
61128;BME280;47013;42.664;23.242;2023-06-19T08:25:13;94165.13;;;23.04;48.99
61128;BME280;47013;42.664;23.242;2023-06-19T08:27:38;94173.31;;;23.13;48.32
61128;BME280;47013;42.664;23.242;2023-06-19T08:30:04;94166.00;;;23.30;46.81
61128;BME280;47013;42.664;23.242;2023-06-19T08:32:29;94175.31;;;23.47;48.65
61128;BME280;47013;42.664;23.242;2023-06-19T08:34:55;94168.44;;;23.58;44.92
61128;BME280;47013;42.664;23.242;2023-06-19T08:37:20;94173.91;;;23.72;47.44
61128;BME280;47013;42.664;23.242;2023-06-19T08:39:45;94176.59;;;23.87;47.14
61128;BME280;47013;42.664;23.242;2023-06-19T08:42:11;94169.84;;;23.94;46.06
61128;BME280;47013;42.664;23.242;2023-06-19T08:44:36;94167.47;;;24.07;44.96
61128;BME280;47013;42.664;23.242;2023-06-19T08:47:02;94171.50;;;24.06;45.40
61128;BME280;47013;42.664;23.242;2023-06-19T08:49:33;94166.53;;;24.10;44.24
61128;BME280;47013;42.664;23.242;2023-06-19T08:51:58;94165.66;;;24.24;44.92
61128;BME280;47013;42.664;23.242;2023-06-19T08:54:24;94170.13;;;24.42;47.92
61128;BME280;47013;42.664;23.242;2023-06-19T08:56:50;94167.97;;;24.52;40.95
61128;BME280;47013;42.664;23.242;2023-06-19T08:59:16;94176.88;;;24.61;42.34
61128;BME280;47013;42.664;23.242;2023-06-19T09:01:48;94170.50;;;24.55;42.38
61128;BME280;47013;42.664;23.242;2023-06-19T09:04:20;94177.63;;;24.62;44.96
61128;BME280;47013;42.664;23.242;2023-06-19T09:09:15;94159.53;;;24.66;39.60
61128;BME280;47013;42.664;23.242;2023-06-19T09:11:40;94166.09;;;24.69;40.96
61128;BME280;47013;42.664;23.242;2023-06-19T09:14:09;94155.59;;;24.79;39.05
61128;BME280;47013;42.664;23.242;2023-06-19T09:16:38;94163.50;;;24.91;39.48
61128;BME280;47013;42.664;23.242;2023-06-19T09:19:04;94159.75;;;24.94;39.74
61128;BME280;47013;42.664;23.242;2023-06-19T09:21:29;94166.16;;;25.06;37.76
61128;BME280;47013;42.664;23.242;2023-06-19T09:23:54;94165.25;;;25.20;38.14
61128;BME280;47013;42.664;23.242;2023-06-19T09:26:19;94167.50;;;25.22;39.58
61128;BME280;47013;42.664;23.242;2023-06-19T09:28:45;94168.03;;;25.26;40.06
61128;BME280;47013;42.664;23.242;2023-06-19T09:31:11;94166.06;;;25.32;39.83
61128;BME280;47013;42.664;23.242;2023-06-19T09:33:38;94163.81;;;25.36;39.65
61128;BME280;47013;42.664;23.242;2023-06-19T09:36:04;94159.03;;;25.37;41.51
61128;BME280;47013;42.664;23.242;2023-06-19T09:38:35;94172.69;;;25.40;38.57
61128;BME280;47013;42.664;23.242;2023-06-19T09:41:02;94163.16;;;25.52;37.93
61128;BME280;47013;42.664;23.242;2023-06-19T09:43:36;94161.84;;;25.48;40.04
61128;BME280;47013;42.664;23.242;2023-06-19T09:46:02;94169.50;;;25.64;39.93
61128;BME280;47013;42.664;23.242;2023-06-19T09:48:28;94174.84;;;25.68;40.67
61128;BME280;47013;42.664;23.242;2023-06-19T09:50:59;94169.63;;;25.81;35.90
61128;BME280;47013;42.664;23.242;2023-06-19T09:53:25;94165.34;;;25.85;36.28
61128;BME280;47013;42.664;23.242;2023-06-19T09:55:51;94156.28;;;25.96;38.11
61128;BME280;47013;42.664;23.242;2023-06-19T09:58:19;94157.84;;;26.08;40.37
61128;BME280;47013;42.664;23.242;2023-06-19T10:00:46;94162.66;;;26.13;38.19
61128;BME280;47013;42.664;23.242;2023-06-19T10:03:12;94157.34;;;26.04;37.49
61128;BME280;47013;42.664;23.242;2023-06-19T10:05:37;94149.50;;;26.08;39.70
61128;BME280;47013;42.664;23.242;2023-06-19T10:08:03;94147.28;;;26.24;42.00
61128;BME280;47013;42.664;23.242;2023-06-19T10:10:29;94151.34;;;26.34;38.92
61128;BME280;47013;42.664;23.242;2023-06-19T10:12:57;94146.28;;;26.32;37.29
61128;BME280;47013;42.664;23.242;2023-06-19T10:17:52;94144.03;;;26.42;39.74
61128;BME280;47013;42.664;23.242;2023-06-19T10:20:27;94146.31;;;26.55;38.78
61128;BME280;47013;42.664;23.242;2023-06-19T10:22:57;94134.47;;;26.77;41.54
61128;BME280;47013;42.664;23.242;2023-06-19T10:25:23;94142.81;;;26.99;37.22
61128;BME280;47013;42.664;23.242;2023-06-19T10:27:49;94133.69;;;27.15;35.05
61128;BME280;47013;42.664;23.242;2023-06-19T10:30:17;94134.94;;;27.25;33.00
61128;BME280;47013;42.664;23.242;2023-06-19T10:32:44;94134.19;;;27.25;34.45
61128;BME280;47013;42.664;23.242;2023-06-19T10:35:12;94134.91;;;27.31;33.92
61128;BME280;47013;42.664;23.242;2023-06-19T10:37:38;94124.34;;;27.13;35.54
61128;BME280;47013;42.664;23.242;2023-06-19T10:40:03;94135.97;;;27.22;34.38
61128;BME280;47013;42.664;23.242;2023-06-19T10:42:33;94127.31;;;27.31;33.66
61128;BME280;47013;42.664;23.242;2023-06-19T10:45:01;94131.63;;;27.32;35.41
61128;BME280;47013;42.664;23.242;2023-06-19T10:47:27;94127.56;;;27.33;37.38
61128;BME280;47013;42.664;23.242;2023-06-19T10:49:53;94130.84;;;27.43;35.33
61128;BME280;47013;42.664;23.242;2023-06-19T10:52:19;94135.38;;;27.46;35.34
61128;BME280;47013;42.664;23.242;2023-06-19T10:54:44;94134.38;;;27.49;36.04
61128;BME280;47013;42.664;23.242;2023-06-19T10:57:09;94132.59;;;27.52;34.24
61128;BME280;47013;42.664;23.242;2023-06-19T10:59:35;94128.00;;;27.60;36.62
61128;BME280;47013;42.664;23.242;2023-06-19T11:02:00;94130.03;;;27.65;34.68
61128;BME280;47013;42.664;23.242;2023-06-19T11:04:25;94127.50;;;27.61;36.77
61128;BME280;47013;42.664;23.242;2023-06-19T11:06:51;94126.22;;;27.74;36.75
61128;BME280;47013;42.664;23.242;2023-06-19T11:09:17;94119.81;;;27.84;37.86
61128;BME280;47013;42.664;23.242;2023-06-19T11:11:45;94117.16;;;28.14;36.87
61128;BME280;47013;42.664;23.242;2023-06-19T11:14:11;94115.31;;;28.28;35.70
61128;BME280;47013;42.664;23.242;2023-06-19T11:16:46;94107.72;;;28.29;35.33
61128;BME280;47013;42.664;23.242;2023-06-19T11:19:19;94115.56;;;28.30;36.10
61128;BME280;47013;42.664;23.242;2023-06-19T11:21:45;94115.25;;;28.39;32.71
61128;BME280;47013;42.664;23.242;2023-06-19T11:24:11;94116.25;;;28.36;33.31
61128;BME280;47013;42.664;23.242;2023-06-19T11:26:43;94110.16;;;28.38;34.47
61128;BME280;47013;42.664;23.242;2023-06-19T11:29:17;94123.41;;;28.26;35.11
61128;BME280;47013;42.664;23.242;2023-06-19T11:31:43;94109.25;;;28.18;35.87
61128;BME280;47013;42.664;23.242;2023-06-19T11:34:09;94113.50;;;27.84;34.97
61128;BME280;47013;42.664;23.242;2023-06-19T11:36:36;94111.25;;;27.77;35.57
61128;BME280;47013;42.664;23.242;2023-06-19T11:39:02;94109.00;;;27.58;35.13
61128;BME280;47013;42.664;23.242;2023-06-19T11:41:30;94108.50;;;27.60;34.80
61128;BME280;47013;42.664;23.242;2023-06-19T11:43:59;94105.06;;;27.20;36.81
61128;BME280;47013;42.664;23.242;2023-06-19T11:46:28;94106.91;;;27.01;37.40
61128;BME280;47013;42.664;23.242;2023-06-19T11:48:54;94107.91;;;27.09;37.85
61128;BME280;47013;42.664;23.242;2023-06-19T11:51:20;94095.75;;;27.07;36.53
61128;BME280;47013;42.664;23.242;2023-06-19T11:53:45;94088.69;;;26.83;38.30
61128;BME280;47013;42.664;23.242;2023-06-19T11:56:11;94098.28;;;26.93;37.59
61128;BME280;47013;42.664;23.242;2023-06-19T11:58:36;94095.00;;;27.06;38.05
61128;BME280;47013;42.664;23.242;2023-06-19T12:01:01;94100.00;;;27.30;40.20
61128;BME280;47013;42.664;23.242;2023-06-19T12:03:27;94102.47;;;27.45;37.81
61128;BME280;47013;42.664;23.242;2023-06-19T12:05:52;94097.03;;;27.11;38.86
61128;BME280;47013;42.664;23.242;2023-06-19T12:08:17;94093.22;;;26.92;38.23
61128;BME280;47013;42.664;23.242;2023-06-19T12:10:43;94101.31;;;27.12;39.69
61128;BME280;47013;42.664;23.242;2023-06-19T12:13:08;94093.94;;;27.26;40.15
61128;BME280;47013;42.664;23.242;2023-06-19T12:15:33;94097.50;;;27.15;39.03
61128;BME280;47013;42.664;23.242;2023-06-19T12:17:59;94100.56;;;27.06;38.38
61128;BME280;47013;42.664;23.242;2023-06-19T12:20:24;94095.22;;;27.25;37.47
61128;BME280;47013;42.664;23.242;2023-06-19T12:22:50;94093.63;;;27.41;37.49
61128;BME280;47013;42.664;23.242;2023-06-19T12:25:15;94092.13;;;27.34;37.25
61128;BME280;47013;42.664;23.242;2023-06-19T12:27:41;94086.56;;;27.34;38.90
61128;BME280;47013;42.664;23.242;2023-06-19T12:30:06;94089.13;;;27.21;38.14
61128;BME280;47013;42.664;23.242;2023-06-19T12:32:32;94089.09;;;27.32;37.75
61128;BME280;47013;42.664;23.242;2023-06-19T12:34:58;94088.78;;;27.52;38.09
61128;BME280;47013;42.664;23.242;2023-06-19T12:37:23;94089.00;;;27.60;37.40
61128;BME280;47013;42.664;23.242;2023-06-19T12:39:52;94089.50;;;27.70;37.71
61128;BME280;47013;42.664;23.242;2023-06-19T12:42:17;94083.59;;;27.84;36.30
61128;BME280;47013;42.664;23.242;2023-06-19T12:44:43;94080.22;;;27.97;36.64
61128;BME280;47013;42.664;23.242;2023-06-19T12:47:09;94083.69;;;28.14;36.64
61128;BME280;47013;42.664;23.242;2023-06-19T12:49:35;94082.63;;;28.29;36.46